createdAt,value
2023-08-22T00:00:06.643Z,486.04
2023-08-22T00:00:16.637Z,486.10
2023-08-22T00:00:26.688Z,486.12
2023-08-22T00:00:36.649Z,486.07
2023-08-22T00:00:46.691Z,486.17
2023-08-22T00:00:56.716Z,486.15
2023-08-22T00:01:06.673Z,486.10
2023-08-22T00:01:16.660Z,486.19
2023-08-22T00:01:36.648Z,486.18
2023-08-22T00:01:46.641Z,486.26
2023-08-22T00:01:56.664Z,486.25
2023-08-22T00:02:06.658Z,486.25
2023-08-22T00:02:16.641Z,486.34
2023-08-22T00:02:26.670Z,486.30
2023-08-22T00:02:46.659Z,486.36
2023-08-22T00:02:56.723Z,486.36
2023-08-22T00:03:06.747Z,486.41
2023-08-22T00:03:16.774Z,486.38
2023-08-22T00:03:26.697Z,486.48
2023-08-22T00:03:36.694Z,486.49
2023-08-22T00:03:56.697Z,486.55
2023-08-22T00:04:06.677Z,486.57
2023-08-22T00:04:16.667Z,486.54
2023-08-22T00:04:26.662Z,486.63
2023-08-22T00:04:36.660Z,486.63
2023-08-22T00:04:46.654Z,486.59
2023-08-22T00:04:56.680Z,486.66
2023-08-22T00:05:06.661Z,486.67
2023-08-22T00:05:16.653Z,486.61
2023-08-22T00:05:26.655Z,486.70
2023-08-22T00:05:36.653Z,486.72
2023-08-22T00:05:46.658Z,486.72
2023-08-22T00:06:06.673Z,486.73
2023-08-22T00:06:16.663Z,486.70
2023-08-22T00:06:26.655Z,486.81
2023-08-22T00:06:36.674Z,486.82
2023-08-22T00:06:46.662Z,486.80
2023-08-22T00:06:56.663Z,486.89
2023-08-22T00:07:06.666Z,486.88
2023-08-22T00:07:16.659Z,486.87
2023-08-22T00:07:26.663Z,486.96
2023-08-22T00:07:46.659Z,486.89
2023-08-22T00:07:56.697Z,486.94
2023-08-22T00:08:06.923Z,486.89
2023-08-22T00:08:16.662Z,486.91
2023-08-22T00:08:26.671Z,486.90
2023-08-22T00:08:36.665Z,486.98
2023-08-22T00:08:46.668Z,486.97
2023-08-22T00:08:56.688Z,486.95
2023-08-22T00:09:06.682Z,486.97
2023-08-22T00:09:16.678Z,487.04
2023-08-22T00:09:26.678Z,487.04
2023-08-22T00:09:36.683Z,487.03
2023-08-22T00:09:46.673Z,487.14
2023-08-22T00:09:56.657Z,487.14
2023-08-22T00:10:16.676Z,487.24
2023-08-22T00:10:26.669Z,487.26
2023-08-22T00:10:36.683Z,487.25
2023-08-22T00:10:46.693Z,487.31
2023-08-22T00:10:59.973Z,487.34
2023-08-22T00:11:06.670Z,487.40
2023-08-22T00:11:16.681Z,487.48
2023-08-22T00:11:26.679Z,487.45
2023-08-22T00:11:36.692Z,487.46
2023-08-22T00:11:46.681Z,487.49
2023-08-22T00:11:56.682Z,487.56
2023-08-22T00:12:06.677Z,487.57
2023-08-22T00:12:26.679Z,487.56
2023-08-22T00:12:36.703Z,487.52
2023-08-22T00:12:46.687Z,487.46
2023-08-22T00:12:56.676Z,487.51
2023-08-22T00:13:06.677Z,487.46
2023-08-22T00:13:16.693Z,487.41
2023-08-22T00:13:26.690Z,487.46
2023-08-22T00:13:46.694Z,487.36
2023-08-22T00:13:56.684Z,487.41
2023-08-22T00:14:06.684Z,487.38
2023-08-22T00:14:16.697Z,487.34
2023-08-22T00:14:26.698Z,487.35
2023-08-22T00:14:36.687Z,487.41
2023-08-22T00:14:46.691Z,487.40
2023-08-22T00:14:56.676Z,487.39
2023-08-22T00:15:06.707Z,487.46
2023-08-22T00:15:16.680Z,487.46
2023-08-22T00:15:26.778Z,487.42
2023-08-22T00:15:36.796Z,487.49
2023-08-22T00:15:46.732Z,487.47
2023-08-22T00:15:56.762Z,487.43
2023-08-22T00:16:16.775Z,487.52
2023-08-22T00:16:26.701Z,487.49
2023-08-22T00:16:36.713Z,487.54
2023-08-22T00:16:46.710Z,487.62
2023-08-22T00:16:56.700Z,487.83
2023-08-22T00:17:06.697Z,487.82
2023-08-22T00:17:26.706Z,487.93
2023-08-22T00:17:36.697Z,487.91
2023-08-22T00:17:46.713Z,487.97
2023-08-22T00:17:56.809Z,487.96
2023-08-22T00:18:06.757Z,487.94
2023-08-22T00:18:16.732Z,488.05
2023-08-22T00:18:26.718Z,488.06
2023-08-22T00:18:36.707Z,488.03
2023-08-22T00:18:46.709Z,488.09
2023-08-22T00:19:06.718Z,488.06
2023-08-22T00:19:16.713Z,488.12
2023-08-22T00:19:28.226Z,488.07
2023-08-22T00:19:36.708Z,488.01
2023-08-22T00:19:46.736Z,488.07
2023-08-22T00:19:56.723Z,488.02
2023-08-22T00:20:06.717Z,487.95
2023-08-22T00:20:16.711Z,487.99
2023-08-22T00:20:26.720Z,487.94
2023-08-22T00:20:36.712Z,487.87
2023-08-22T00:20:46.716Z,487.90
2023-08-22T00:20:56.719Z,487.85
2023-08-22T00:21:06.732Z,487.79
2023-08-22T00:21:16.743Z,487.74
2023-08-22T00:21:26.721Z,487.76
2023-08-22T00:21:36.721Z,487.70
2023-08-22T00:21:46.719Z,487.60
2023-08-22T00:21:56.711Z,487.64
2023-08-22T00:22:06.721Z,487.57
2023-08-22T00:22:26.719Z,487.50
2023-08-22T00:22:36.730Z,487.57
2023-08-22T00:22:46.716Z,487.50
2023-08-22T00:22:56.735Z,487.42
2023-08-22T00:23:06.739Z,487.45
2023-08-22T00:23:16.728Z,487.39
2023-08-22T00:23:26.721Z,487.36
2023-08-22T00:23:36.732Z,487.42
2023-08-22T00:23:46.717Z,487.40
2023-08-22T00:23:56.720Z,487.37
2023-08-22T00:24:16.723Z,487.44
2023-08-22T00:24:26.726Z,487.41
2023-08-22T00:24:36.749Z,487.50
2023-08-22T00:24:46.726Z,487.52
2023-08-22T00:24:56.728Z,487.49
2023-08-22T00:25:06.741Z,487.63
2023-08-22T00:25:16.729Z,487.59
2023-08-22T00:25:26.732Z,487.62
2023-08-22T00:25:36.730Z,487.72
2023-08-22T00:25:46.730Z,487.68
2023-08-22T00:25:56.729Z,487.62
2023-08-22T00:26:06.739Z,487.68
2023-08-22T00:26:16.768Z,487.63
2023-08-22T00:26:26.743Z,487.60
2023-08-22T00:26:36.761Z,487.64
2023-08-22T00:26:46.726Z,487.60
2023-08-22T00:26:56.730Z,487.56
2023-08-22T00:27:06.745Z,487.60
2023-08-22T00:27:26.739Z,487.57
2023-08-22T00:27:36.773Z,487.64
2023-08-22T00:27:46.745Z,487.61
2023-08-22T00:27:56.747Z,487.58
2023-08-22T00:28:06.745Z,487.68
2023-08-22T00:28:16.737Z,487.65
2023-08-22T00:28:26.749Z,487.71
2023-08-22T00:28:46.739Z,487.70
2023-08-22T00:28:56.737Z,487.77
2023-08-22T00:29:06.741Z,487.77
2023-08-22T00:29:16.745Z,487.75
2023-08-22T00:29:26.745Z,487.83
2023-08-22T00:29:36.741Z,487.82
2023-08-22T00:29:46.748Z,487.78
2023-08-22T00:29:56.778Z,487.83
2023-08-22T00:30:06.749Z,487.78
2023-08-22T00:30:16.747Z,487.77
2023-08-22T00:30:26.745Z,487.70
2023-08-22T00:30:36.776Z,487.67
2023-08-22T00:30:46.807Z,487.72
2023-08-22T00:31:06.783Z,487.70
2023-08-22T00:31:16.826Z,487.69
2023-08-22T00:31:26.769Z,487.62
2023-08-22T00:31:36.756Z,487.70
2023-08-22T00:31:46.751Z,487.68
2023-08-22T00:31:56.761Z,487.64
2023-08-22T00:32:06.763Z,487.70
2023-08-22T00:32:26.791Z,487.65
2023-08-22T00:32:36.846Z,487.71
2023-08-22T00:32:46.817Z,487.72
2023-08-22T00:32:56.815Z,487.68
2023-08-22T00:33:06.813Z,487.78
2023-08-22T00:33:16.791Z,487.74
2023-08-22T00:33:36.762Z,487.75
2023-08-22T00:33:46.758Z,487.76
2023-08-22T00:33:56.760Z,487.70
2023-08-22T00:34:06.765Z,487.78
2023-08-22T00:34:16.757Z,487.78
2023-08-22T00:34:26.790Z,487.75
2023-08-22T00:34:36.766Z,487.83
2023-08-22T00:34:46.774Z,487.82
2023-08-22T00:34:56.776Z,487.78
2023-08-22T00:35:06.768Z,487.85
2023-08-22T00:35:16.767Z,487.82
2023-08-22T00:35:26.769Z,487.81
2023-08-22T00:35:36.784Z,487.91
2023-08-22T00:35:46.767Z,487.90
2023-08-22T00:35:56.784Z,487.90
2023-08-22T00:36:06.772Z,488.00
2023-08-22T00:36:16.791Z,487.99
2023-08-22T00:36:26.781Z,487.98
2023-08-22T00:36:46.770Z,488.09
2023-08-22T00:36:56.775Z,488.17
2023-08-22T00:37:06.776Z,488.15
2023-08-22T00:37:16.794Z,488.26
2023-08-22T00:37:26.779Z,488.25
2023-08-22T00:37:36.777Z,488.25
2023-08-22T00:37:46.785Z,488.35
2023-08-22T00:38:06.788Z,488.34
2023-08-22T00:38:16.795Z,488.41
2023-08-22T00:38:26.789Z,488.41
2023-08-22T00:38:36.784Z,488.38
2023-08-22T00:38:46.781Z,488.42
2023-08-22T00:38:56.789Z,488.39
2023-08-22T00:39:06.784Z,488.35
2023-08-22T00:39:16.812Z,488.42
2023-08-22T00:39:26.799Z,488.37
2023-08-22T00:39:36.786Z,488.39
2023-08-22T00:39:46.800Z,488.38
2023-08-22T00:39:56.800Z,488.34
2023-08-22T00:40:06.785Z,488.35
2023-08-22T00:40:26.796Z,488.24
2023-08-22T00:40:36.789Z,488.27
2023-08-22T00:40:46.791Z,488.24
2023-08-22T00:40:56.786Z,488.17
2023-08-22T00:41:06.793Z,488.20
2023-08-22T00:41:16.799Z,488.13
2023-08-22T00:41:36.789Z,488.10
2023-08-22T00:41:46.802Z,488.05
2023-08-22T00:41:56.790Z,487.99
2023-08-22T00:42:06.794Z,488.02
2023-08-22T00:42:16.793Z,487.94
2023-08-22T00:42:26.796Z,487.89
2023-08-22T00:42:36.824Z,487.95
2023-08-22T00:42:46.798Z,487.89
2023-08-22T00:42:56.810Z,487.86
2023-08-22T00:43:06.800Z,487.90
2023-08-22T00:43:16.818Z,487.86
2023-08-22T00:43:26.803Z,487.82
2023-08-22T00:43:36.816Z,487.86
2023-08-22T00:43:46.806Z,487.80
2023-08-22T00:43:56.803Z,487.78
2023-08-22T00:44:06.803Z,487.82
2023-08-22T00:44:16.806Z,487.80
2023-08-22T00:44:26.809Z,487.76
2023-08-22T00:44:46.817Z,487.82
2023-08-22T00:44:56.801Z,487.88
2023-08-22T00:45:06.856Z,487.90
2023-08-22T00:45:16.805Z,487.88
2023-08-22T00:45:26.807Z,487.96
2023-08-22T00:45:36.811Z,487.96
2023-08-22T00:45:56.804Z,488.04
2023-08-22T00:46:06.863Z,488.07
2023-08-22T00:46:16.845Z,488.07
2023-08-22T00:46:26.832Z,488.16
2023-08-22T00:46:36.854Z,488.15
2023-08-22T00:46:46.864Z,488.13
2023-08-22T00:46:56.811Z,488.16
2023-08-22T00:47:06.811Z,488.11
2023-08-22T00:47:26.862Z,488.09
2023-08-22T00:47:36.880Z,488.13
2023-08-22T00:47:46.862Z,488.11
2023-08-22T00:47:56.832Z,488.04
2023-08-22T00:48:06.847Z,488.11
2023-08-22T00:48:16.872Z,488.11
2023-08-22T00:48:26.813Z,488.09
2023-08-22T00:48:46.813Z,488.16
2023-08-22T00:48:56.821Z,488.19
2023-08-22T00:49:06.827Z,488.29
2023-08-22T00:49:16.838Z,488.33
2023-08-22T00:49:26.824Z,488.34
2023-08-22T00:49:36.823Z,488.51
2023-08-22T00:49:46.821Z,488.53
2023-08-22T00:49:57.828Z,488.58
2023-08-22T00:50:06.827Z,488.70
2023-08-22T00:50:16.829Z,488.73
2023-08-22T00:50:26.828Z,488.75
2023-08-22T00:50:36.833Z,488.88
2023-08-22T00:50:46.853Z,488.90
2023-08-22T00:51:06.823Z,489.08
2023-08-22T00:51:16.822Z,489.08
2023-08-22T00:51:26.831Z,489.11
2023-08-22T00:51:36.851Z,489.25
2023-08-22T00:51:46.825Z,489.24
2023-08-22T00:51:56.823Z,489.25
2023-08-22T00:52:06.836Z,489.39
2023-08-22T00:52:16.837Z,489.43
2023-08-22T00:52:26.828Z,489.46
2023-08-22T00:52:36.824Z,489.58
2023-08-22T00:52:46.833Z,489.55
2023-08-22T00:52:56.854Z,489.53
2023-08-22T00:53:06.843Z,489.64
2023-08-22T00:53:26.853Z,489.70
2023-08-22T00:53:36.844Z,489.71
2023-08-22T00:53:46.837Z,489.69
2023-08-22T00:53:56.852Z,489.74
2023-08-22T00:54:06.833Z,489.74
2023-08-22T00:54:16.843Z,489.67
2023-08-22T00:54:26.845Z,489.74
2023-08-22T00:54:36.857Z,489.69
2023-08-22T00:54:46.835Z,489.65
2023-08-22T00:54:56.851Z,489.72
2023-08-22T00:55:06.852Z,489.71
2023-08-22T00:55:16.852Z,489.66
2023-08-22T00:55:26.845Z,489.72
2023-08-22T00:55:46.879Z,489.66
2023-08-22T00:55:56.848Z,489.68
2023-08-22T00:56:06.844Z,489.68
2023-08-22T00:56:16.859Z,489.62
2023-08-22T00:56:26.851Z,489.70
2023-08-22T00:56:36.844Z,489.66
2023-08-22T00:56:46.852Z,489.59
2023-08-22T00:56:56.845Z,489.67
2023-08-22T00:57:06.850Z,489.64
2023-08-22T00:57:16.852Z,489.62
2023-08-22T00:57:26.860Z,489.71
2023-08-22T00:57:36.853Z,489.69
2023-08-22T00:57:46.856Z,489.73
2023-08-22T00:57:56.852Z,489.84
2023-08-22T00:58:06.874Z,489.88
2023-08-22T00:58:16.861Z,489.89
2023-08-22T00:58:26.854Z,489.99
2023-08-22T00:58:36.863Z,489.96
2023-08-22T00:58:46.861Z,489.99
2023-08-22T00:58:56.878Z,490.07
2023-08-22T00:59:06.863Z,490.01
2023-08-22T00:59:16.853Z,490.10
2023-08-22T00:59:26.858Z,490.14
2023-08-22T00:59:36.870Z,490.13
2023-08-22T00:59:56.881Z,490.29
2023-08-22T01:00:06.872Z,490.29
2023-08-22T01:00:16.888Z,490.40
2023-08-22T01:00:26.912Z,490.38
2023-08-22T01:00:36.902Z,490.36
2023-08-22T01:00:46.882Z,490.45
2023-08-22T01:00:56.898Z,490.45
2023-08-22T01:01:06.916Z,490.46
2023-08-22T01:01:26.902Z,490.58
2023-08-22T01:01:36.874Z,490.59
2023-08-22T01:01:46.869Z,490.70
2023-08-22T01:01:56.883Z,490.70
2023-08-22T01:02:06.883Z,490.68
2023-08-22T01:02:16.943Z,490.76
2023-08-22T01:02:36.968Z,490.82
2023-08-22T01:02:46.940Z,490.96
2023-08-22T01:02:56.932Z,491.01
2023-08-22T01:03:06.996Z,491.04
2023-08-22T01:03:20.209Z,491.17
2023-08-22T01:03:26.911Z,491.21
2023-08-22T01:03:46.996Z,491.36
2023-08-22T01:03:56.903Z,491.42
2023-08-22T01:04:06.899Z,491.45
2023-08-22T01:04:16.886Z,491.58
2023-08-22T01:04:26.880Z,491.63
2023-08-22T01:04:36.897Z,491.66
2023-08-22T01:04:46.891Z,491.80
2023-08-22T01:04:56.894Z,491.81
2023-08-22T01:05:16.884Z,491.89
2023-08-22T01:05:26.881Z,491.86
2023-08-22T01:05:36.891Z,491.98
2023-08-22T01:05:46.888Z,491.98
2023-08-22T01:05:56.881Z,492.00
2023-08-22T01:06:06.898Z,492.10
2023-08-22T01:06:16.885Z,492.12
2023-08-22T01:06:26.885Z,492.09
2023-08-22T01:06:36.915Z,492.15
2023-08-22T01:06:46.895Z,492.13
2023-08-22T01:07:06.897Z,492.17
2023-08-22T01:07:16.912Z,492.17
2023-08-22T01:07:26.896Z,492.13
2023-08-22T01:07:36.890Z,492.16
2023-08-22T01:07:46.892Z,492.11
2023-08-22T01:07:56.891Z,492.10
2023-08-22T01:08:06.890Z,492.17
2023-08-22T01:08:26.900Z,492.22
2023-08-22T01:08:36.896Z,492.25
2023-08-22T01:08:46.927Z,492.35
2023-08-22T01:08:56.898Z,492.38
2023-08-22T01:09:06.898Z,492.36
2023-08-22T01:09:16.904Z,492.45
2023-08-22T01:09:26.900Z,492.44
2023-08-22T01:09:36.917Z,492.43
2023-08-22T01:09:46.917Z,492.47
2023-08-22T01:09:56.897Z,492.46
2023-08-22T01:10:06.896Z,492.41
2023-08-22T01:10:16.904Z,492.50
2023-08-22T01:10:26.894Z,492.50
2023-08-22T01:10:36.907Z,492.49
2023-08-22T01:10:46.924Z,492.60
2023-08-22T01:10:56.909Z,492.60
2023-08-22T01:11:06.903Z,492.60
2023-08-22T01:11:16.911Z,492.67
2023-08-22T01:11:26.911Z,492.70
2023-08-22T01:11:36.911Z,492.67
2023-08-22T01:11:46.908Z,492.77
2023-08-22T01:11:56.914Z,492.78
2023-08-22T01:12:06.926Z,492.75
2023-08-22T01:12:16.914Z,492.84
2023-08-22T01:12:26.914Z,492.86
2023-08-22T01:12:46.910Z,492.89
2023-08-22T01:12:56.909Z,492.84
2023-08-22T01:13:06.907Z,492.82
2023-08-22T01:13:16.914Z,492.89
2023-08-22T01:13:26.935Z,492.83
2023-08-22T01:13:36.915Z,492.79
2023-08-22T01:13:46.933Z,492.84
2023-08-22T01:13:56.936Z,492.79
2023-08-22T01:14:06.917Z,492.72
2023-08-22T01:14:16.920Z,492.78
2023-08-22T01:14:26.936Z,492.70
2023-08-22T01:14:36.917Z,492.76
2023-08-22T01:14:56.936Z,492.67
2023-08-22T01:15:07.005Z,492.72
2023-08-22T01:15:16.927Z,492.69
2023-08-22T01:15:26.934Z,492.63
2023-08-22T01:15:36.929Z,492.67
2023-08-22T01:15:46.946Z,492.61
2023-08-22T01:15:56.958Z,492.51
2023-08-22T01:16:06.933Z,492.49
2023-08-22T01:16:16.931Z,492.41
2023-08-22T01:16:36.948Z,492.39
2023-08-22T01:16:46.985Z,492.33
2023-08-22T01:16:56.959Z,492.25
2023-08-22T01:17:06.947Z,492.30
2023-08-22T01:17:16.931Z,492.19
2023-08-22T01:17:26.973Z,492.12
2023-08-22T01:17:46.994Z,492.03
2023-08-22T01:17:56.959Z,491.92
2023-08-22T01:18:06.984Z,491.95
2023-08-22T01:18:16.972Z,491.84
2023-08-22T01:18:26.946Z,491.76
2023-08-22T01:18:36.937Z,491.75
2023-08-22T01:18:46.948Z,491.67
2023-08-22T01:18:56.946Z,491.60
2023-08-22T01:19:06.939Z,491.62
2023-08-22T01:19:26.948Z,491.48
2023-08-22T01:19:36.940Z,491.37
2023-08-22T01:19:46.945Z,491.39
2023-08-22T01:19:56.944Z,491.28
2023-08-22T01:20:06.944Z,491.18
2023-08-22T01:20:16.944Z,491.19
2023-08-22T01:20:26.948Z,491.11
2023-08-22T01:20:36.967Z,491.00
2023-08-22T01:20:46.956Z,491.05
2023-08-22T01:20:56.959Z,491.00
2023-08-22T01:21:07.001Z,490.95
2023-08-22T01:21:16.947Z,491.02
2023-08-22T01:21:26.952Z,491.00
2023-08-22T01:21:36.981Z,490.94
2023-08-22T01:21:46.949Z,491.03
2023-08-22T01:21:56.949Z,491.03
2023-08-22T01:22:06.967Z,491.01
2023-08-22T01:22:16.962Z,491.09
2023-08-22T01:22:36.955Z,491.08
2023-08-22T01:22:46.952Z,491.18
2023-08-22T01:22:56.986Z,491.16
2023-08-22T01:23:06.957Z,491.12
2023-08-22T01:23:16.952Z,491.23
2023-08-22T01:23:26.964Z,491.23
2023-08-22T01:23:36.964Z,491.33
2023-08-22T01:23:46.969Z,491.35
2023-08-22T01:24:06.960Z,491.47
2023-08-22T01:24:16.960Z,491.47
2023-08-22T01:24:26.961Z,491.44
2023-08-22T01:24:36.964Z,491.54
2023-08-22T01:24:46.961Z,491.54
2023-08-22T01:24:56.988Z,491.54
2023-08-22T01:25:06.974Z,491.63
2023-08-22T01:25:16.982Z,491.64
2023-08-22T01:25:26.961Z,491.61
2023-08-22T01:25:36.971Z,491.68
2023-08-22T01:25:46.972Z,491.69
2023-08-22T01:25:57.002Z,491.69
2023-08-22T01:26:06.965Z,491.75
2023-08-22T01:26:16.969Z,491.73
2023-08-22T01:26:26.973Z,491.67
2023-08-22T01:26:37.013Z,491.75
2023-08-22T01:26:46.972Z,491.77
2023-08-22T01:26:56.990Z,491.77
2023-08-22T01:27:06.971Z,491.83
2023-08-22T01:27:16.971Z,491.82
2023-08-22T01:27:26.972Z,491.79
2023-08-22T01:27:46.988Z,491.89
2023-08-22T01:27:57.000Z,491.90
2023-08-22T01:28:06.988Z,492.03
2023-08-22T01:28:16.988Z,492.03
2023-08-22T01:28:26.986Z,492.06
2023-08-22T01:28:36.992Z,492.14
2023-08-22T01:28:46.991Z,492.15
2023-08-22T01:29:07.001Z,492.25
2023-08-22T01:29:16.988Z,492.24
2023-08-22T01:29:26.982Z,492.33
2023-08-22T01:29:36.995Z,492.34
2023-08-22T01:29:46.986Z,492.32
2023-08-22T01:29:56.985Z,492.40
2023-08-22T01:30:16.990Z,492.41
2023-08-22T01:30:26.991Z,492.50
2023-08-22T01:30:36.987Z,492.49
2023-08-22T01:30:46.995Z,492.46
2023-08-22T01:30:56.998Z,492.48
2023-08-22T01:31:07.015Z,492.44
2023-08-22T01:31:16.996Z,492.43
2023-08-22T01:31:27.002Z,492.46
2023-08-22T01:31:37.029Z,492.37
2023-08-22T01:31:47.031Z,492.31
2023-08-22T01:31:57.086Z,492.34
2023-08-22T01:32:16.993Z,492.16
2023-08-22T01:32:26.995Z,492.14
2023-08-22T01:32:36.995Z,492.06
2023-08-22T01:32:47.049Z,491.97
2023-08-22T01:32:57.035Z,492.05
2023-08-22T01:33:07.039Z,491.98
2023-08-22T01:33:17.041Z,491.90
2023-08-22T01:33:27.009Z,491.94
2023-08-22T01:33:36.997Z,491.85
2023-08-22T01:33:47.001Z,491.81
2023-08-22T01:33:57.002Z,491.86
2023-08-22T01:34:06.987Z,491.81
2023-08-22T01:34:17.007Z,491.77
2023-08-22T01:34:27.022Z,491.77
2023-08-22T01:34:37.010Z,491.85
2023-08-22T01:34:47.006Z,491.84
2023-08-22T01:34:57.007Z,491.81
2023-08-22T01:35:07.002Z,491.91
2023-08-22T01:35:17.022Z,491.90
2023-08-22T01:35:37.019Z,491.96
2023-08-22T01:35:47.011Z,491.94
2023-08-22T01:35:57.028Z,491.93
2023-08-22T01:36:07.027Z,492.03
2023-08-22T01:36:17.015Z,492.04
2023-08-22T01:36:27.023Z,492.05
2023-08-22T01:36:37.048Z,492.16
2023-08-22T01:36:47.073Z,492.12
2023-08-22T01:37:07.027Z,492.28
2023-08-22T01:37:17.021Z,492.26
2023-08-22T01:37:27.037Z,492.23
2023-08-22T01:37:37.073Z,492.33
2023-08-22T01:37:47.038Z,492.31
2023-08-22T01:37:57.018Z,492.37
2023-08-22T01:38:07.022Z,492.39
2023-08-22T01:38:17.018Z,492.36
2023-08-22T01:38:27.073Z,492.41
2023-08-22T01:38:37.040Z,492.39
2023-08-22T01:38:47.080Z,492.35
2023-08-22T01:38:57.074Z,492.41
2023-08-22T01:39:07.166Z,492.39
2023-08-22T01:39:17.027Z,492.28
2023-08-22T01:39:27.028Z,492.31
2023-08-22T01:39:37.055Z,492.25
2023-08-22T01:39:57.068Z,492.21
2023-08-22T01:40:07.027Z,492.19
2023-08-22T01:40:17.039Z,492.15
2023-08-22T01:40:27.039Z,492.24
2023-08-22T01:40:37.018Z,492.24
2023-08-22T01:40:47.060Z,492.21
2023-08-22T01:40:57.030Z,492.31
2023-08-22T01:41:07.030Z,492.32
2023-08-22T01:41:17.032Z,492.30
2023-08-22T01:41:27.034Z,492.31
2023-08-22T01:41:37.051Z,492.24
2023-08-22T01:41:47.058Z,492.16
2023-08-22T01:41:57.036Z,492.19
2023-08-22T01:42:07.042Z,492.12
2023-08-22T01:42:17.064Z,492.09
2023-08-22T01:42:27.038Z,492.10
2023-08-22T01:42:47.039Z,491.94
2023-08-22T01:42:57.036Z,491.99
2023-08-22T01:43:07.067Z,491.93
2023-08-22T01:43:17.049Z,491.88
2023-08-22T01:43:27.043Z,491.96
2023-08-22T01:43:37.044Z,491.89
2023-08-22T01:43:47.062Z,491.88
2023-08-22T01:43:57.047Z,491.85
2023-08-22T01:44:17.049Z,491.81
2023-08-22T01:44:27.062Z,491.74
2023-08-22T01:44:37.069Z,491.70
2023-08-22T01:44:47.050Z,491.71
2023-08-22T01:44:57.051Z,491.69
2023-08-22T01:45:07.064Z,491.61
2023-08-22T01:45:27.058Z,491.60
2023-08-22T01:45:37.149Z,491.54
2023-08-22T01:45:47.093Z,491.58
2023-08-22T01:45:57.093Z,491.57
2023-08-22T01:46:07.089Z,491.52
2023-08-22T01:46:17.102Z,491.60
2023-08-22T01:46:27.119Z,491.59
2023-08-22T01:46:37.073Z,491.56
2023-08-22T01:46:47.071Z,491.62
2023-08-22T01:46:57.061Z,491.59
2023-08-22T01:47:07.069Z,491.53
2023-08-22T01:47:17.058Z,491.63
2023-08-22T01:47:27.082Z,491.62
2023-08-22T01:47:47.129Z,491.72
2023-08-22T01:47:57.119Z,491.68
2023-08-22T01:48:07.117Z,491.66
2023-08-22T01:48:17.069Z,491.74
2023-08-22T01:48:27.064Z,491.73
2023-08-22T01:48:37.067Z,491.73
2023-08-22T01:48:47.067Z,491.84
2023-08-22T01:48:57.066Z,491.82
2023-08-22T01:49:07.071Z,491.80
2023-08-22T01:49:17.069Z,491.94
2023-08-22T01:49:27.073Z,491.90
2023-08-22T01:49:37.072Z,491.99
2023-08-22T01:49:47.076Z,491.98
2023-08-22T01:49:57.079Z,491.97
2023-08-22T01:50:07.087Z,492.02
2023-08-22T01:50:17.083Z,492.02
2023-08-22T01:50:27.082Z,492.02
2023-08-22T01:50:37.099Z,492.15
2023-08-22T01:50:47.082Z,492.11
2023-08-22T01:50:57.101Z,492.14
2023-08-22T01:51:07.088Z,492.28
2023-08-22T01:51:17.102Z,492.30
2023-08-22T01:51:27.077Z,492.30
2023-08-22T01:51:37.118Z,492.41
2023-08-22T01:51:47.099Z,492.40
2023-08-22T01:51:57.098Z,492.40
2023-08-22T01:52:07.105Z,492.49
2023-08-22T01:52:17.080Z,492.47
2023-08-22T01:52:27.087Z,492.46
2023-08-22T01:52:47.093Z,492.55
2023-08-22T01:52:57.101Z,492.56
2023-08-22T01:53:07.106Z,492.63
2023-08-22T01:53:17.108Z,492.63
2023-08-22T01:53:27.092Z,492.62
2023-08-22T01:53:37.093Z,492.69
2023-08-22T01:53:47.118Z,492.67
2023-08-22T01:54:07.097Z,492.69
2023-08-22T01:54:17.117Z,492.63
2023-08-22T01:54:27.104Z,492.60
2023-08-22T01:54:37.120Z,492.63
2023-08-22T01:54:47.113Z,492.59
2023-08-22T01:54:57.104Z,492.63
2023-08-22T01:55:07.102Z,492.62
2023-08-22T01:55:27.098Z,492.63
2023-08-22T01:55:37.099Z,492.61
2023-08-22T01:55:47.116Z,492.62
2023-08-22T01:55:57.108Z,492.67
2023-08-22T01:56:07.116Z,492.68
2023-08-22T01:56:17.099Z,492.66
2023-08-22T01:56:27.106Z,492.73
2023-08-22T01:56:37.134Z,492.67
2023-08-22T01:56:57.104Z,492.62
2023-08-22T01:57:07.118Z,492.57
2023-08-22T01:57:17.110Z,492.48
2023-08-22T01:57:27.112Z,492.55
2023-08-22T01:57:37.174Z,492.52
2023-08-22T01:57:47.109Z,492.47
2023-08-22T01:57:57.129Z,492.56
2023-08-22T01:58:07.112Z,492.52
2023-08-22T01:58:17.111Z,492.52
2023-08-22T01:58:27.127Z,492.60
2023-08-22T01:58:37.144Z,492.59
2023-08-22T01:58:47.112Z,492.58
2023-08-22T01:59:07.113Z,492.59
2023-08-22T01:59:17.133Z,492.57
2023-08-22T01:59:27.135Z,492.61
2023-08-22T01:59:37.135Z,492.61
2023-08-22T01:59:47.120Z,492.56
2023-08-22T01:59:57.126Z,492.67
2023-08-22T02:00:07.144Z,492.64
2023-08-22T02:00:17.132Z,492.74
2023-08-22T02:00:37.128Z,492.77
2023-08-22T02:00:47.128Z,492.72
2023-08-22T02:00:57.149Z,492.75
2023-08-22T02:01:07.174Z,492.60
2023-08-22T02:01:17.183Z,492.67
2023-08-22T02:01:27.170Z,492.62
2023-08-22T02:01:37.198Z,492.57
2023-08-22T02:01:47.165Z,492.59
2023-08-22T02:01:58.036Z,492.57
2023-08-22T02:02:07.130Z,492.52
2023-08-22T02:02:17.124Z,492.57
2023-08-22T02:02:27.163Z,492.50
2023-08-22T02:02:47.196Z,492.52
2023-08-22T02:02:57.199Z,492.42
2023-08-22T02:03:07.201Z,492.36
2023-08-22T02:03:17.239Z,492.43
2023-08-22T02:03:27.242Z,492.45
2023-08-22T02:03:37.283Z,492.35
2023-08-22T02:03:47.228Z,492.38
2023-08-22T02:03:57.184Z,492.37
2023-08-22T02:04:07.136Z,492.35
2023-08-22T02:04:17.147Z,492.33
2023-08-22T02:04:27.136Z,492.30
2023-08-22T02:04:37.158Z,492.21
2023-08-22T02:04:47.143Z,492.30
2023-08-22T02:05:07.166Z,492.23
2023-08-22T02:05:17.135Z,492.30
2023-08-22T02:05:27.140Z,492.25
2023-08-22T02:05:40.175Z,492.22
2023-08-22T02:05:47.146Z,492.29
2023-08-22T02:05:57.161Z,492.29
2023-08-22T02:06:07.153Z,492.37
2023-08-22T02:06:17.149Z,492.40
2023-08-22T02:06:27.185Z,492.39
2023-08-22T02:06:37.157Z,492.49
2023-08-22T02:06:47.157Z,492.52
2023-08-22T02:07:07.156Z,492.63
2023-08-22T02:07:17.156Z,492.66
2023-08-22T02:07:27.173Z,492.64
2023-08-22T02:07:37.161Z,492.71
2023-08-22T02:07:47.145Z,492.73
2023-08-22T02:07:57.149Z,492.74
2023-08-22T02:08:07.179Z,492.81
2023-08-22T02:08:17.153Z,492.83
2023-08-22T02:08:37.181Z,492.87
2023-08-22T02:08:47.152Z,492.89
2023-08-22T02:08:57.159Z,492.87
2023-08-22T02:09:07.152Z,492.92
2023-08-22T02:09:17.166Z,492.93
2023-08-22T02:09:27.156Z,492.92
2023-08-22T02:09:47.180Z,492.98
2023-08-22T02:09:57.177Z,492.95
2023-08-22T02:10:07.164Z,493.05
2023-08-22T02:10:17.160Z,493.01
2023-08-22T02:10:27.163Z,493.01
2023-08-22T02:10:37.164Z,493.09
2023-08-22T02:10:57.179Z,493.05
2023-08-22T02:11:07.175Z,493.11
2023-08-22T02:11:17.174Z,493.11
2023-08-22T02:11:27.167Z,493.09
2023-08-22T02:11:37.180Z,493.16
2023-08-22T02:11:47.168Z,493.17
2023-08-22T02:11:57.174Z,493.17
2023-08-22T02:12:07.181Z,493.23
2023-08-22T02:12:17.180Z,493.24
2023-08-22T02:12:27.183Z,493.33
2023-08-22T02:12:47.182Z,493.33
2023-08-22T02:12:57.176Z,493.43
2023-08-22T02:13:07.169Z,493.45
2023-08-22T02:13:17.176Z,493.43
2023-08-22T02:13:27.183Z,493.53
2023-08-22T02:13:37.174Z,493.57
2023-08-22T02:13:47.174Z,493.54
2023-08-22T02:13:57.182Z,493.64
2023-08-22T02:14:17.185Z,493.63
2023-08-22T02:14:27.190Z,493.73
2023-08-22T02:14:37.184Z,493.75
2023-08-22T02:14:47.184Z,493.72
2023-08-22T02:14:57.178Z,493.79
2023-08-22T02:15:07.177Z,493.80
2023-08-22T02:15:17.182Z,493.78
2023-08-22T02:15:37.230Z,493.87
2023-08-22T02:15:47.217Z,493.84
2023-08-22T02:15:57.229Z,493.91
2023-08-22T02:16:07.224Z,493.87
2023-08-22T02:16:17.202Z,493.85